Time;durP1;ratioP1;P1;durP2;ratioP2;P2;SDS_P1;SDS_P2;PMS_P1;PMS_P2;Temp;Humidity;BMP_temperature;BMP_pressure;BME280_temperature;BME280_humidity;BME280_pressure;Samples;Min_cycle;Max_cycle;Signal;HPM_P1;HPM_P2
2021/07/21 00:01:08;;;;;;;8.52;5.97;;;;;;;14.10;76.36;102174.84;10456059;28;20055;-60
2021/07/21 00:06:11;;;;;;;7.65;5.72;;;;;;;14.05;76.79;102167.16;10456297;28;20132;-60
2021/07/21 00:16:37;;;;;;;9.70;5.40;;;;;;;13.84;77.77;102168.25;10455784;28;20056;-60
2021/07/21 00:21:39;;;;;;;11.27;5.35;;;;;;;14.13;75.35;102165.00;10455467;28;20099;-60
2021/07/21 00:26:42;;;;;;;8.85;6.00;;;;;;;13.79;77.09;102168.47;10455279;28;20053;-59
2021/07/21 00:31:44;;;;;;;10.43;5.68;;;;;;;13.92;76.17;102158.22;10454104;28;20501;-60
2021/07/21 00:36:46;;;;;;;10.00;6.05;;;;;;;13.80;76.97;102157.03;10454875;28;20515;-59
2021/07/21 00:41:49;;;;;;;11.00;7.20;;;;;;;13.60;79.31;102159.78;10456755;28;20041;-60
2021/07/21 00:46:51;;;;;;;9.48;6.97;;;;;;;13.49;79.55;102169.03;10462079;28;20053;-60
2021/07/21 00:51:54;;;;;;;11.65;7.22;;;;;;;13.66;78.90;102164.75;10462049;28;20053;-60
2021/07/21 00:56:57;;;;;;;9.77;5.50;;;;;;;13.93;77.76;102165.16;10461710;28;20077;-60
2021/07/21 01:02:00;;;;;;;12.70;6.93;;;;;;;13.60;80.13;102159.78;10460478;28;20049;-59
2021/07/21 01:07:05;;;;;;;7.80;6.15;;;;;;;13.81;77.98;102166.63;10460363;28;20482;-59
2021/07/21 01:12:26;;;;;;;11.43;6.40;;;;;;;13.53;79.47;102173.25;10461177;28;20052;-61
2021/07/21 01:17:45;;;;;;;10.20;7.00;;;;;;;13.65;78.73;102163.03;10443742;28;20049;-59
2021/07/21 01:23:09;;;;;;;10.48;6.45;;;;;;;13.48;80.35;102169.97;10461259;28;20294;-60
2021/07/21 01:28:12;;;;;;;9.15;6.13;;;;;;;13.47;79.54;102170.06;10460752;28;20497;-59
2021/07/21 01:33:15;;;;;;;9.13;6.60;;;;;;;13.55;79.31;102163.50;10460682;28;20045;-61
2021/07/21 01:38:39;;;;;;;11.52;7.35;;;;;;;13.40;80.46;102164.22;10459087;28;20401;-60
2021/07/21 01:43:44;;;;;;;15.93;8.63;;;;;;;13.35;81.00;102164.44;10459365;28;20041;-61
2021/07/21 01:48:47;;;;;;;13.30;7.68;;;;;;;13.61;79.72;102169.38;10459352;28;20056;-60
2021/07/21 01:53:51;;;;;;;12.88;8.05;;;;;;;13.42;80.37;102174.69;10459559;28;20076;-59
2021/07/21 01:58:55;;;;;;;16.13;9.48;;;;;;;13.50;80.83;102167.25;10458692;28;20045;-59
2021/07/21 02:03:59;;;;;;;12.82;8.52;;;;;;;13.34;81.51;102169.75;10458284;28;20045;-60
2021/07/21 02:09:04;;;;;;;16.35;9.38;;;;;;;13.44;82.05;102167.56;10459059;28;20057;-60
2021/07/21 02:14:08;;;;;;;16.65;9.63;;;;;;;13.38;82.51;102176.56;10457838;28;20052;-60
2021/07/21 02:19:11;;;;;;;14.77;9.23;;;;;;;13.53;82.26;102167.09;10457366;28;20515;-60
2021/07/21 02:24:13;;;;;;;16.65;9.70;;;;;;;13.52;81.44;102175.94;10458791;28;20049;-59
2021/07/21 02:29:16;;;;;;;16.33;9.68;;;;;;;13.32;82.49;102179.50;10458028;28;20052;-59
2021/07/21 02:34:18;;;;;;;14.98;8.63;;;;;;;13.49;81.74;102176.09;10456897;28;20052;-59
2021/07/21 02:39:21;;;;;;;17.20;9.50;;;;;;;13.29;82.86;102174.38;10457935;28;20067;-59
2021/07/21 02:44:24;;;;;;;16.35;9.85;;;;;;;13.25;82.54;102173.66;10458365;28;20049;-60
2021/07/21 02:49:26;;;;;;;14.77;8.52;;;;;;;13.36;82.02;102175.81;10457581;28;20060;-59
2021/07/21 02:55:07;;;;;;;12.77;8.85;;;;;;;13.27;81.88;102173.59;10457239;28;20512;-60
2021/07/21 03:00:15;;;;;;;16.80;9.45;;;;;;;13.19;83.37;102173.94;10456046;28;20045;-62
2021/07/21 03:05:19;;;;;;;13.98;8.45;;;;;;;13.30;81.75;102176.91;10456733;28;20051;-59
2021/07/21 03:10:22;;;;;;;13.13;8.38;;;;;;;13.12;82.07;102181.25;10455886;28;20124;-60
2021/07/21 03:15:28;;;;;;;14.85;8.75;;;;;;;13.26;81.68;102183.22;10456543;28;20041;-59
2021/07/21 03:20:31;;;;;;;16.83;10.50;;;;;;;13.16;82.06;102189.84;10455692;28;20053;-60
2021/07/21 03:25:33;;;;;;;13.75;8.57;;;;;;;12.99;83.08;102191.50;10455244;28;20056;-60
2021/07/21 03:30:36;;;;;;;17.75;10.20;;;;;;;13.08;82.73;102191.97;10455812;28;20052;-60
2021/07/21 03:35:39;;;;;;;17.98;10.50;;;;;;;13.11;82.15;102200.59;10455227;28;20059;-60
2021/07/21 03:40:41;;;;;;;17.50;9.65;;;;;;;13.20;82.32;102199.31;10455319;28;20056;-60
2021/07/21 03:45:44;;;;;;;13.77;9.20;;;;;;;13.06;83.18;102199.94;10455253;28;20053;-59
2021/07/21 03:50:47;;;;;;;14.57;9.48;;;;;;;13.08;83.08;102197.22;10455035;28;20045;-60
2021/07/21 03:55:50;;;;;;;19.83;10.55;;;;;;;12.99;83.59;102201.13;10455206;28;20056;-59
2021/07/21 04:00:55;;;;;;;17.05;11.32;;;;;;;13.02;82.95;102201.00;10454785;28;20049;-61
2021/07/21 04:05:58;;;;;;;23.40;12.20;;;;;;;13.04;83.46;102199.16;10456370;28;20052;-61
2021/07/21 04:11:01;;;;;;;18.60;10.98;;;;;;;13.03;82.92;102194.84;10455772;28;20053;-60
2021/07/21 04:16:05;;;;;;;18.23;11.70;;;;;;;13.04;83.07;102196.53;10457149;28;20041;-61
2021/07/21 04:21:08;;;;;;;20.25;11.75;;;;;;;13.21;82.69;102201.00;10462183;28;20394;-60
2021/07/21 04:26:10;;;;;;;17.30;10.38;;;;;;;13.22;83.03;102207.13;10463635;28;20065;-60
2021/07/21 04:31:13;;;;;;;21.30;11.82;;;;;;;13.28;83.35;102199.81;10462332;28;20045;-62
2021/07/21 04:36:16;;;;;;;20.90;11.52;;;;;;;13.22;83.32;102210.63;10461674;28;20051;-60
2021/07/21 04:41:21;;;;;;;18.67;11.70;;;;;;;13.36;83.19;102208.25;10462585;28;20524;-60
2021/07/21 04:46:24;;;;;;;18.98;10.45;;;;;;;13.52;82.48;102216.25;10462322;28;20061;-60
2021/07/21 04:51:26;;;;;;;17.38;12.00;;;;;;;13.38;83.29;102226.56;10461125;28;20076;-61
2021/07/21 04:56:29;;;;;;;18.35;11.38;;;;;;;13.48;83.42;102234.88;10460631;28;20507;-59
2021/07/21 05:01:33;;;;;;;22.92;11.00;;;;;;;13.50;83.98;102227.75;10461944;28;20053;-61
2021/07/21 05:06:36;;;;;;;18.17;11.27;;;;;;;13.63;83.54;102233.31;10461993;28;20065;-59
2021/07/21 05:11:39;;;;;;;17.30;10.75;;;;;;;13.87;82.59;102237.41;10443725;28;20049;-61
2021/07/21 05:16:41;;;;;;;19.15;12.50;;;;;;;13.94;81.63;102238.81;10461584;28;20056;-59
2021/07/21 05:21:44;;;;;;;18.27;11.60;;;;;;;14.16;82.71;102240.41;10460850;28;20100;-60
2021/07/21 05:26:47;;;;;;;18.40;12.75;;;;;;;14.25;82.36;102252.25;10460111;28;20408;-60
2021/07/21 05:31:52;;;;;;;18.45;12.27;;;;;;;14.54;81.79;102252.56;10461024;28;20124;-62
2021/07/21 05:36:54;;;;;;;19.30;12.20;;;;;;;14.59;81.24;102248.81;10460214;28;20392;-62
2021/07/21 05:41:57;;;;;;;17.60;11.73;;;;;;;14.81;81.35;102252.94;10459186;28;20484;-60
2021/07/21 05:47:00;;;;;;;24.83;15.80;;;;;;;15.09;80.10;102268.19;10458834;28;20413;-60
2021/07/21 05:52:02;;;;;;;31.42;16.50;;;;;;;15.43;79.85;102269.00;10460149;28;20049;-61
2021/07/21 05:57:06;;;;;;;20.88;16.05;;;;;;;15.54;79.80;102277.19;10459620;28;20048;-61
2021/07/21 06:02:08;;;;;;;25.58;17.95;;;;;;;15.72;79.61;102279.75;10459796;28;20045;-60
2021/07/21 06:07:11;;;;;;;24.70;18.65;;;;;;;15.91;79.03;102276.97;10459639;28;20140;-61
2021/07/21 06:12:13;;;;;;;26.65;18.65;;;;;;;15.69;79.82;102280.78;10459612;28;20044;-60
2021/07/21 06:17:17;;;;;;;26.52;18.45;;;;;;;16.31;78.73;102270.25;10459039;28;20048;-61
2021/07/21 06:22:19;;;;;;;26.20;18.27;;;;;;;16.49;78.86;102273.59;10458241;28;20497;-61
2021/07/21 06:27:21;;;;;;;27.77;18.55;;;;;;;16.80;77.44;102271.75;10458816;28;20504;-61
2021/07/21 06:32:24;;;;;;;21.45;16.50;;;;;;;17.04;77.47;102287.97;10458348;28;20048;-61
2021/07/21 06:37:26;;;;;;;24.65;18.00;;;;;;;17.08;77.35;102288.66;10458424;28;20045;-61
2021/07/21 06:42:28;;;;;;;26.60;18.33;;;;;;;17.26;77.05;102290.16;10457509;28;20041;-60
2021/07/21 06:47:31;;;;;;;27.77;18.10;;;;;;;17.25;76.75;102296.38;10457575;28;20059;-59
2021/07/21 06:52:33;;;;;;;25.77;17.48;;;;;;;17.48;76.66;102299.38;10458038;28;20129;-61
2021/07/21 06:57:36;;;;;;;22.25;16.83;;;;;;;17.83;75.89;102304.25;10457279;28;20053;-60
2021/07/21 07:02:38;;;;;;;23.15;15.93;;;;;;;17.89;76.10;102308.34;10458135;28;20048;-60
2021/07/21 07:07:40;;;;;;;22.88;16.05;;;;;;;18.26;74.83;102309.44;10455765;28;20049;-61
2021/07/21 07:12:43;;;;;;;23.77;15.82;;;;;;;18.42;75.01;102311.91;10457309;28;20052;-61
2021/07/21 07:17:46;;;;;;;20.88;14.77;;;;;;;18.68;74.25;102320.78;10456538;28;20374;-61
2021/07/21 07:22:48;;;;;;;19.23;13.77;;;;;;;18.77;73.87;102321.94;10456524;28;20049;-62
2021/07/21 07:27:50;;;;;;;22.48;14.60;;;;;;;18.89;73.69;102317.63;10456923;28;20184;-61
2021/07/21 07:32:53;;;;;;;20.35;13.95;;;;;;;19.22;73.30;102318.91;10455334;28;20527;-61
2021/07/21 07:37:55;;;;;;;19.13;13.40;;;;;;;19.51;72.65;102318.66;10456668;28;20041;-59
2021/07/21 07:42:57;;;;;;;17.58;12.50;;;;;;;19.72;72.01;102322.44;10455218;28;20049;-61
2021/07/21 07:48:00;;;;;;;21.00;12.57;;;;;;;19.91;70.93;102337.91;10455775;28;20053;-60
2021/07/21 07:53:02;;;;;;;14.98;11.63;;;;;;;19.70;71.18;102331.47;10462042;28;20052;-61
2021/07/21 07:58:05;;;;;;;21.10;11.45;;;;;;;19.80;70.52;102333.38;10463951;28;20599;-61
2021/07/21 08:03:07;;;;;;;15.80;10.63;;;;;;;20.04;70.75;102330.75;10464587;28;20420;-61
2021/07/21 08:08:10;;;;;;;17.92;11.50;;;;;;;20.45;69.18;102328.63;10462532;28;20551;-61
2021/07/21 08:13:12;;;;;;;19.50;10.30;;;;;;;20.43;65.89;102327.91;10463677;28;20402;-61
2021/07/21 08:18:15;;;;;;;12.43;8.95;;;;;;;20.39;65.62;102335.25;10463417;28;20049;-64
2021/07/21 08:23:17;;;;;;;9.75;8.18;;;;;;;20.56;63.77;102327.78;10463231;28;20063;-62
2021/07/21 08:28:20;;;;;;;9.35;7.40;;;;;;;20.53;60.96;102333.38;10461996;28;20056;-60
2021/07/21 08:33:22;;;;;;;12.13;7.38;;;;;;;20.54;58.14;102333.25;10462122;28;20041;-61
2021/07/21 08:38:24;;;;;;;9.85;6.43;;;;;;;20.64;56.94;102329.91;10462183;28;20485;-60
2021/07/21 08:43:27;;;;;;;10.15;6.20;;;;;;;21.02;58.34;102331.47;10462501;28;20045;-61
2021/07/21 08:48:29;;;;;;;10.57;7.15;;;;;;;20.76;59.80;102327.19;10462001;28;20067;-61
2021/07/21 08:53:32;;;;;;;10.98;7.03;;;;;;;21.53;60.28;102331.00;10463067;28;20071;-61
2021/07/21 08:58:34;;;;;;;11.05;7.35;;;;;;;21.13;56.83;102324.31;10460746;28;20084;-62
2021/07/21 09:03:37;;;;;;;12.93;7.65;;;;;;;21.99;54.65;102329.06;10461428;28;20051;-62
2021/07/21 09:08:41;;;;;;;10.50;7.20;;;;;;;22.12;55.72;102334.25;10460642;28;20049;-63
2021/07/21 09:13:44;;;;;;;9.52;6.95;;;;;;;22.49;53.39;102337.41;10462266;28;20044;-61
2021/07/21 09:18:54;;;;;;;10.38;6.18;;;;;;;24.12;53.13;102338.41;10459948;28;20072;-61
2021/07/21 09:23:57;;;;;;;8.98;6.20;;;;;;;23.97;49.45;102332.63;10460623;28;20067;-62
2021/07/21 09:29:01;;;;;;;9.18;6.05;;;;;;;23.67;48.22;102329.03;10461202;28;20053;-63
2021/07/21 09:34:20;;;;;;;6.15;5.13;;;;;;;24.56;45.77;102319.25;10460654;28;20056;-62
2021/07/21 09:39:40;;;;;;;5.88;5.00;;;;;;;23.64;43.11;102323.97;10460091;28;20041;-62
2021/07/21 09:44:44;;;;;;;4.50;4.03;;;;;;;23.34;42.30;102325.69;10460038;28;20409;-61
2021/07/21 09:49:47;;;;;;;4.93;4.47;;;;;;;24.59;43.31;102318.97;10459886;28;20386;-60
2021/07/21 09:55:12;;;;;;;6.85;4.57;;;;;;;24.86;45.30;102326.25;10458554;28;20048;-61
2021/07/21 10:00:22;;;;;;;6.30;4.32;;;;;;;24.31;43.06;102316.19;10458634;28;20045;-61
2021/07/21 10:05:25;;;;;;;6.97;5.18;;;;;;;25.69;39.79;102326.34;10459367;28;20049;-60
2021/07/21 10:10:27;;;;;;;6.53;4.93;;;;;;;26.34;41.22;102317.25;10459499;28;20057;-59
2021/07/21 10:15:29;;;;;;;5.93;4.22;;;;;;;26.99;42.54;102318.72;10458959;28;20102;-60
2021/07/21 10:20:32;;;;;;;7.55;4.97;;;;;;;25.75;37.71;102303.41;10458881;28;20057;-59
2021/07/21 10:25:35;;;;;;;5.47;4.72;;;;;;;26.36;41.97;102303.66;10458345;28;20049;-60
2021/07/21 10:30:40;;;;;;;5.70;4.35;;;;;;;26.08;36.89;102306.47;10458588;28;20049;-61
2021/07/21 10:35:44;;;;;;;5.38;4.53;;;;;;;25.46;40.23;102296.41;10458281;28;20049;-60
2021/07/21 10:40:47;;;;;;;5.95;3.83;;;;;;;26.36;38.16;102306.34;10458063;28;20412;-60
2021/07/21 10:45:49;;;;;;;3.60;3.25;;;;;;;27.24;38.52;102296.31;10456653;28;20075;-61
2021/07/21 10:51:13;;;;;;;4.40;3.22;;;;;;;28.29;37.07;102301.25;10457998;28;20059;-62
2021/07/21 11:01:51;;;;;;;4.40;4.00;;;;;;;27.16;35.54;102298.13;10456986;28;20053;-61
2021/07/21 11:06:53;;;;;;;5.25;4.72;;;;;;;27.25;34.38;102289.09;10457771;28;20087;-61
2021/07/21 11:11:57;;;;;;;5.20;4.70;;;;;;;27.96;34.89;102285.13;10455973;28;20072;-61
2021/07/21 11:17:06;;;;;;;8.57;4.95;;;;;;;28.04;35.85;102291.50;10455747;28;20044;-61
2021/07/21 11:22:11;;;;;;;5.22;4.22;;;;;;;27.86;36.31;102288.97;10456877;28;20057;-61
2021/07/21 11:27:53;;;;;;;5.28;4.45;;;;;;;28.57;36.15;102292.03;10455608;28;20409;-62
2021/07/21 11:32:55;;;;;;;5.25;4.47;;;;;;;26.52;36.13;102285.81;10456519;28;20063;-60
2021/07/21 11:38:00;;;;;;;5.22;4.05;;;;;;;28.03;34.76;102290.69;10454846;28;20052;-61
2021/07/21 11:43:31;;;;;;;5.53;4.40;;;;;;;28.26;34.53;102287.28;10456359;28;20467;-61
2021/07/21 11:48:34;;;;;;;7.78;4.28;;;;;;;26.67;36.52;102279.91;10455950;28;20481;-61
2021/07/21 11:53:36;;;;;;;5.32;4.43;;;;;;;29.28;34.12;102277.63;10456276;28;20045;-63
2021/07/21 11:58:39;;;;;;;5.03;4.53;;;;;;;27.66;37.23;102277.66;10456500;28;20091;-63
2021/07/21 12:03:48;;;;;;;6.38;5.25;;;;;;;29.37;34.95;102272.19;10456053;28;20127;-61
2021/07/21 12:08:58;;;;;;;4.70;4.30;;;;;;;29.62;37.23;102281.84;10456086;28;20056;-62
2021/07/21 12:14:04;;;;;;;5.95;4.75;;;;;;;29.51;36.00;102268.75;10455788;28;20052;-59
2021/07/21 12:19:07;;;;;;;6.75;4.30;;;;;;;29.28;31.90;102268.72;10455393;28;20075;-63
2021/07/21 12:24:12;;;;;;;5.25;4.75;;;;;;;27.64;34.40;102275.13;10455428;28;20053;-62
2021/07/21 12:29:25;;;;;;;7.55;5.03;;;;;;;27.04;37.11;102265.34;10455377;28;20057;-62
2021/07/21 12:34:28;;;;;;;5.05;4.53;;;;;;;29.01;34.20;102268.13;10456286;28;20095;-61
2021/07/21 12:39:31;;;;;;;5.25;4.75;;;;;;;30.78;33.20;102257.34;10461331;28;20048;-61
2021/07/21 12:44:45;;;;;;;4.85;4.32;;;;;;;29.83;34.14;102272.28;10462533;28;20049;-61
2021/07/21 12:49:51;;;;;;;6.82;5.63;;;;;;;29.21;34.90;102268.56;10462415;28;20049;-60
2021/07/21 12:55:37;;;;;;;8.40;5.70;;;;;;;28.86;34.61;102262.63;10462686;28;20049;-60
2021/07/21 13:00:50;;;;;;;5.60;5.10;;;;;;;29.97;30.61;102260.66;10462139;28;20111;-61
2021/07/21 13:05:56;;;;;;;6.78;4.93;;;;;;;30.52;34.52;102263.25;10461524;28;20063;-63
2021/07/21 13:11:13;;;;;;;5.93;5.32;;;;;;;29.05;33.73;102260.53;10461795;28;20396;-60
2021/07/21 13:16:22;;;;;;;7.32;5.60;;;;;;;29.02;38.02;102263.59;10461452;28;20559;-61
2021/07/21 13:21:28;;;;;;;5.65;5.07;;;;;;;30.75;29.31;102246.94;10461582;28;20148;-63
2021/07/21 13:26:31;;;;;;;8.75;6.28;;;;;;;28.35;31.06;102251.28;10460598;28;20517;-59
2021/07/21 13:31:38;;;;;;;7.95;5.43;;;;;;;29.33;35.53;102250.13;10461496;28;20041;-60
2021/07/21 13:36:42;;;;;;;8.27;6.15;;;;;;;30.30;30.81;102249.56;10459543;28;20053;-62
2021/07/21 13:42:11;;;;;;;6.80;5.97;;;;;;;29.59;33.38;102257.06;10459435;28;20057;-62
2021/07/21 13:47:14;;;;;;;8.05;5.85;;;;;;;29.60;33.54;102253.34;10458612;28;20052;-60
2021/07/21 13:52:20;;;;;;;8.80;5.35;;;;;;;31.03;31.42;102248.97;10458696;28;20045;-61
2021/07/21 13:57:23;;;;;;;7.25;5.30;;;;;;;28.51;34.09;102256.66;10460257;28;20182;-60
2021/07/21 14:02:29;;;;;;;7.47;5.53;;;;;;;30.88;34.89;102248.97;10459770;28;20045;-59
2021/07/21 14:07:32;;;;;;;7.50;5.38;;;;;;;29.40;32.73;102234.94;10459101;28;20416;-60
2021/07/21 14:12:35;;;;;;;6.65;5.28;;;;;;;29.54;34.23;102238.72;10459322;28;20053;-61
2021/07/21 14:17:37;;;;;;;6.28;5.68;;;;;;;29.61;32.29;102236.97;10458731;28;20131;-60
2021/07/21 14:22:39;;;;;;;9.02;6.18;;;;;;;28.43;34.15;102240.50;10459182;28;20128;-61
2021/07/21 14:27:42;;;;;;;10.90;6.53;;;;;;;28.48;35.40;102234.56;10458716;28;20057;-60
2021/07/21 14:32:44;;;;;;;16.98;5.97;;;;;;;29.79;36.14;102233.16;10457749;28;20052;-61
2021/07/21 14:37:46;;;;;;;6.18;5.43;;;;;;;30.48;33.10;102235.75;10457887;28;20052;-60
2021/07/21 14:42:49;;;;;;;6.75;5.43;;;;;;;30.04;34.35;102225.69;10457638;28;20041;-60
2021/07/21 14:47:51;;;;;;;8.25;6.47;;;;;;;29.55;32.21;102218.78;10457614;28;20049;-60
2021/07/21 14:52:53;;;;;;;6.95;5.80;;;;;;;30.29;33.04;102226.28;10457757;28;20500;-61
2021/07/21 14:57:59;;;;;;;6.60;5.82;;;;;;;30.14;32.62;102220.88;10457645;28;20103;-61
2021/07/21 15:03:04;;;;;;;10.13;5.82;;;;;;;28.54;35.09;102221.25;10456670;28;20041;-62
2021/07/21 15:08:08;;;;;;;7.53;5.40;;;;;;;27.17;38.74;102211.13;10456029;28;20053;-62
2021/07/21 15:13:11;;;;;;;7.78;6.10;;;;;;;28.11;38.52;102209.91;10457061;28;20052;-63
2021/07/21 15:18:13;;;;;;;8.55;6.47;;;;;;;26.64;39.66;102213.09;10456491;28;20055;-64
2021/07/21 15:23:15;;;;;;;6.68;5.88;;;;;;;26.64;40.14;102213.09;10457104;28;20053;-62
2021/07/21 15:28:18;;;;;;;5.53;4.97;;;;;;;27.96;38.93;102207.06;10456471;28;20072;-62
2021/07/21 15:33:20;;;;;;;6.95;6.25;;;;;;;26.87;41.74;102200.75;10456986;28;20056;-62
2021/07/21 15:38:24;;;;;;;6.43;5.72;;;;;;;26.66;38.53;102205.69;10456385;28;20061;-63
2021/07/21 15:43:27;;;;;;;6.95;5.70;;;;;;;26.45;41.62;102203.41;10456242;28;20046;-63
2021/07/21 15:48:30;;;;;;;7.35;5.95;;;;;;;25.89;43.63;102200.97;10456203;28;20059;-63
2021/07/21 15:53:32;;;;;;;6.50;5.32;;;;;;;25.60;46.58;102201.19;10456197;28;20412;-62
2021/07/21 15:58:34;;;;;;;9.00;6.10;;;;;;;25.11;46.51;102206.84;10456021;28;20135;-62
2021/07/21 16:03:37;;;;;;;8.00;5.38;;;;;;;25.24;46.40;102203.00;10456045;28;20045;-60
2021/07/21 16:08:39;;;;;;;8.05;5.97;;;;;;;24.95;49.65;102196.81;10455340;28;20575;-62
2021/07/21 16:13:42;;;;;;;9.82;6.30;;;;;;;24.79;51.08;102194.75;10461368;28;20056;-61
2021/07/21 16:18:44;;;;;;;7.13;5.97;;;;;;;25.43;46.76;102194.84;10463411;28;20080;-64
2021/07/21 16:23:46;;;;;;;7.82;6.00;;;;;;;25.17;50.07;102195.53;10463528;28;20045;-62
2021/07/21 16:28:49;;;;;;;7.97;5.80;;;;;;;25.07;52.97;102183.22;10463450;28;20049;-61
2021/07/21 16:33:52;;;;;;;7.38;6.40;;;;;;;24.79;53.31;102178.69;10463021;28;20509;-61
2021/07/21 16:38:56;;;;;;;8.00;6.22;;;;;;;24.37;52.68;102183.59;10461554;28;20060;-61
2021/07/21 16:43:59;;;;;;;8.05;5.75;;;;;;;24.69;53.58;102183.22;10462692;28;20048;-60
2021/07/21 16:49:02;;;;;;;7.65;6.07;;;;;;;24.23;56.94;102185.75;10462480;28;20400;-61
2021/07/21 16:54:04;;;;;;;7.18;6.20;;;;;;;24.30;56.10;102180.66;10461274;28;20052;-63
2021/07/21 16:59:06;;;;;;;7.25;6.10;;;;;;;24.36;57.18;102177.41;10462198;28;20045;-61
2021/07/21 17:04:09;;;;;;;7.93;7.00;;;;;;;24.30;58.83;102176.16;10462075;28;20045;-61
2021/07/21 17:09:11;;;;;;;8.93;7.05;;;;;;;24.23;59.44;102183.06;10462080;28;20057;-61
2021/07/21 17:14:13;;;;;;;7.43;6.55;;;;;;;24.11;58.27;102179.72;10461778;28;20052;-61
2021/07/21 17:19:20;;;;;;;10.20;6.25;;;;;;;24.03;59.27;102179.59;10461431;28;20049;-61
2021/07/21 17:24:23;;;;;;;7.90;6.30;;;;;;;23.84;60.84;102182.28;10460168;28;20057;-62
2021/07/21 17:29:28;;;;;;;7.15;6.43;;;;;;;23.60;61.95;102186.19;10461100;28;20045;-61
2021/07/21 17:34:30;;;;;;;9.90;7.03;;;;;;;23.35;63.12;102185.78;10459704;28;20405;-63
2021/07/21 17:39:33;;;;;;;8.93;6.60;;;;;;;22.98;62.74;102185.47;10460291;28;20060;-63
2021/07/21 17:44:35;;;;;;;11.23;6.82;;;;;;;22.55;65.95;102192.78;10459049;28;20052;-62
2021/07/21 17:49:38;;;;;;;10.10;6.70;;;;;;;22.66;64.10;102181.16;10460260;28;20052;-61
2021/07/21 17:54:40;;;;;;;8.65;6.32;;;;;;;22.31;63.75;102193.06;10459904;28;20500;-60
2021/07/21 17:59:43;;;;;;;8.52;5.90;;;;;;;22.61;61.96;102188.72;10459770;28;20052;-61
2021/07/21 18:04:45;;;;;;;9.60;7.57;;;;;;;22.12;64.12;102182.25;10459204;28;20048;-62
2021/07/21 18:09:47;;;;;;;10.55;7.18;;;;;;;21.97;64.31;102182.56;10459409;28;20049;-61
2021/07/21 18:14:50;;;;;;;8.25;6.60;;;;;;;21.92;63.54;102181.25;10459380;28;20055;-62
2021/07/21 18:19:52;;;;;;;10.88;7.07;;;;;;;21.79;64.56;102182.28;10458989;28;20053;-60
2021/07/21 18:24:54;;;;;;;7.10;6.40;;;;;;;21.91;63.45;102174.25;10457408;28;20052;-60
2021/07/21 18:29:57;;;;;;;8.65;6.57;;;;;;;21.90;66.01;102176.03;10458669;28;20053;-61
2021/07/21 18:34:59;;;;;;;9.10;7.28;;;;;;;21.91;65.94;102169.75;10458327;28;20057;-61
2021/07/21 18:40:02;;;;;;;8.20;7.18;;;;;;;21.70;65.89;102175.03;10457697;28;20057;-61
2021/07/21 18:45:05;;;;;;;9.95;6.90;;;;;;;21.51;65.53;102175.72;10458218;28;20052;-61
2021/07/21 18:50:09;;;;;;;11.15;7.40;;;;;;;21.45;66.17;102178.84;10457868;28;20481;-61
2021/07/21 18:55:11;;;;;;;8.00;6.55;;;;;;;21.40;66.35;102179.25;10457558;28;20511;-61
2021/07/21 19:00:14;;;;;;;11.43;8.55;;;;;;;21.47;65.13;102171.63;10457358;28;20480;-62
2021/07/21 19:05:16;;;;;;;8.43;7.25;;;;;;;21.64;64.69;102173.75;10457426;28;20049;-62
2021/07/21 19:10:19;;;;;;;9.02;7.72;;;;;;;21.30;67.02;102171.16;10457323;28;20045;-61
2021/07/21 19:15:23;;;;;;;9.75;7.53;;;;;;;21.02;67.94;102179.69;10456919;28;20045;-61
2021/07/21 19:20:25;;;;;;;8.07;5.70;;;;;;;20.88;68.00;102172.78;10457133;28;20049;-61
2021/07/21 19:25:28;;;;;;;8.93;6.88;;;;;;;20.48;69.63;102173.25;10456929;28;20053;-63
2021/07/21 19:30:30;;;;;;;9.57;7.35;;;;;;;20.54;68.92;102181.59;10456556;28;20060;-61
2021/07/21 19:35:33;;;;;;;8.55;7.63;;;;;;;20.28;68.75;102180.13;10456507;28;20052;-61
2021/07/21 19:40:35;;;;;;;10.48;7.78;;;;;;;20.33;69.00;102185.94;10456695;28;20060;-62
2021/07/21 19:45:37;;;;;;;7.72;6.80;;;;;;;20.26;69.45;102187.34;10456791;28;20045;-62
2021/07/21 19:50:40;;;;;;;12.82;7.90;;;;;;;19.92;69.77;102196.09;10464615;28;20045;-60
2021/07/21 19:55:42;;;;;;;9.10;7.03;;;;;;;19.76;70.84;102187.56;10464717;28;20045;-62
2021/07/21 20:00:46;;;;;;;12.45;8.10;;;;;;;19.69;70.40;102189.81;10464337;28;20396;-62
2021/07/21 20:05:49;;;;;;;10.43;7.93;;;;;;;19.52;70.47;102196.38;10464225;28;20053;-62
2021/07/21 20:10:51;;;;;;;8.63;6.93;;;;;;;19.42;70.08;102201.50;10464304;28;20082;-61
2021/07/21 20:15:53;;;;;;;11.55;8.65;;;;;;;19.21;70.59;102205.69;10463643;28;20393;-61
2021/07/21 20:20:56;;;;;;;13.63;7.35;;;;;;;19.16;70.30;102206.03;10462891;28;20049;-62
2021/07/21 20:25:58;;;;;;;11.10;8.07;;;;;;;19.06;70.04;102208.50;10461929;28;20401;-63
2021/07/21 20:31:01;;;;;;;10.70;8.10;;;;;;;18.63;71.85;102216.78;10462901;28;20052;-60
2021/07/21 20:36:03;;;;;;;8.30;7.18;;;;;;;18.58;72.18;102210.94;10463157;28;20048;-62
2021/07/21 20:41:09;;;;;;;10.60;8.20;;;;;;;18.60;71.44;102211.69;10462752;28;20386;-62
2021/07/21 20:46:11;;;;;;;12.65;8.05;;;;;;;18.70;70.71;102214.56;10463171;28;20055;-61
2021/07/21 20:51:14;;;;;;;9.63;7.82;;;;;;;18.34;72.12;102210.81;10462637;28;20512;-62
2021/07/21 20:56:16;;;;;;;8.55;6.82;;;;;;;18.42;71.95;102210.31;10462219;28;20393;-62
2021/07/21 21:01:18;;;;;;;8.43;7.13;;;;;;;18.48;71.62;102213.38;10460933;28;20049;-62
2021/07/21 21:06:21;;;;;;;12.25;7.53;;;;;;;18.36;71.74;102208.94;10461435;28;20049;-61
2021/07/21 21:11:23;;;;;;;10.38;8.25;;;;;;;18.18;72.41;102213.66;10461728;28;20056;-61
2021/07/21 21:16:26;;;;;;;12.48;8.48;;;;;;;18.13;71.67;102219.25;10461780;28;20052;-60
2021/07/21 21:21:28;;;;;;;11.23;7.40;;;;;;;18.17;71.78;102219.91;10461591;28;20089;-62
2021/07/21 21:26:31;;;;;;;11.55;8.07;;;;;;;18.16;71.86;102219.06;10461377;28;20063;-62
2021/07/21 21:31:33;;;;;;;10.73;7.90;;;;;;;17.95;72.89;102210.72;10459898;28;20060;-62
2021/07/21 21:36:36;;;;;;;14.20;8.32;;;;;;;17.90;72.79;102218.13;10460779;28;20103;-61
2021/07/21 21:41:38;;;;;;;11.50;7.75;;;;;;;17.81;73.47;102210.78;10461094;28;20061;-62
2021/07/21 21:46:40;;;;;;;11.18;8.00;;;;;;;17.59;74.08;102214.81;10459231;28;20059;-63
2021/07/21 21:51:43;;;;;;;11.60;7.90;;;;;;;17.62;73.47;102213.78;10459855;28;20106;-61
2021/07/21 21:56:45;;;;;;;9.60;7.38;;;;;;;17.53;73.28;102219.66;10458705;28;20064;-60
2021/07/21 22:01:48;;;;;;;10.52;7.03;;;;;;;17.42;74.43;102212.41;10459742;28;20049;-62
2021/07/21 22:06:50;;;;;;;13.15;8.18;;;;;;;17.43;73.64;102214.97;10458502;28;20072;-61
2021/07/21 22:11:53;;;;;;;12.38;7.80;;;;;;;17.53;73.62;102209.91;10459153;28;20083;-61
2021/07/21 22:16:55;;;;;;;9.77;7.97;;;;;;;17.30;74.99;102216.69;10459054;28;20041;-61
2021/07/21 22:21:58;;;;;;;11.32;8.38;;;;;;;17.18;75.00;102212.16;10458986;28;20403;-61
2021/07/21 22:27:01;;;;;;;9.07;7.68;;;;;;;17.21;74.85;102214.63;10458473;28;20057;-61
2021/07/21 22:32:04;;;;;;;10.07;7.32;;;;;;;17.20;75.01;102221.72;10457450;28;20049;-61
2021/07/21 22:37:09;;;;;;;11.68;8.40;;;;;;;17.13;75.88;102214.25;10458568;28;20049;-61
2021/07/21 22:42:13;;;;;;;10.82;8.23;;;;;;;17.14;75.49;102218.59;10458080;28;20507;-61
2021/07/21 22:47:16;;;;;;;10.68;8.52;;;;;;;16.97;76.67;102215.22;10457882;28;20489;-61
2021/07/21 22:52:19;;;;;;;10.35;8.65;;;;;;;16.94;76.38;102214.56;10457782;28;20476;-60
2021/07/21 22:57:21;;;;;;;17.48;8.32;;;;;;;16.92;76.93;102214.66;10457917;28;20041;-60
2021/07/21 23:03:01;;;;;;;12.63;9.63;;;;;;;17.03;76.90;102214.84;10457440;28;20546;-62
2021/07/21 23:08:41;;;;;;;13.82;9.05;;;;;;;16.89;77.58;102217.47;10456003;28;20135;-61
2021/07/21 23:14:21;;;;;;;15.15;9.45;;;;;;;16.90;77.26;102214.75;10457590;28;20045;-61
2021/07/21 23:19:24;;;;;;;22.52;9.57;;;;;;;16.86;78.14;102215.88;10456676;28;20060;-61